Greenville Spartanburg International Airport Greenville US
ICAO: KGSP
IATA: GSP
Category: Large
Scheduled Services: Yes

Elevation: 964 ft
TransAlt. 18000 ft.

Airport Communications:
GREER APP/DEP:120.6
ATIS:134.25
CTAF:120.1
GREER GND:121.9
GREER TWR:120.1
UNICOM:122.95

KGSP Zoom In..

Runways:

(A) RW 04 length 11001 ft width 150 ft
ILS 109.30 / hdg 38

(B) RW 22 length 11001 ft width 150 ft
ILS 110.70 / hdg 218

Location; KGSP
Day. 10 / Time. 06.53 Zulu
* Altimeter: 29.70
* Temperature: 14° c. 57.2°f.
* Wind from: 270° Speed 09 kn.
Dewpoint: -03° c.
Visibility: 10 Statute Miles.
Clouds: Clear (automated report).

KGSP 100653Z 27009KT 10SM CLR 14/M03 A2970 RMK AO2 SLP046 T01441033


Wind From 270°
Speed 09 kn.

 
 
jpsmedia worldairports.se 2020   terms of use